Aérodrome :
LOGIN :

S'inscrire | Disclaimer

   EN    FR    IT 

 










Légende :    VFR   VFR Marginal   IFR   IFR Intensif   IFR Très Intensif
Visi : 
Plafond : 
>= 8 km
>= 3000ft
5 à 8 km
1000 à 3000 ft
1500m à 5 km
500 à 1000 ft
800 à 1500m
200 à 500 ft
< 800m
< 200 ft
Symboles :   Orages  Brouillard  Fortes neiges  Fortes précipitations  Vent > 20 kt
SIGMETs :   Divers  Orages  Givrage  Turbulence  Onde Orograph.  Cendres Volcan.






- Altitude de l'aérodrome : 436 ft
- Code IATA : ANG


LFBU - Angoulême Brie Champniers

DERNIER METAR :
  • 191530Z AUTO 25011KT 9999 SCT034 SCT043 BKN052 12/06 Q1029 NOSIG

METARs EXPIRÉS :
  • 191500Z AUTO 26010KT 9999 FEW030 13/06 Q1029 TEMPO 4000 SHRA BKN010 BKN025TCU
  • 191430Z AUTO 24011KT 9999 BKN028 BKN033 BKN040 13/07 Q1029 TEMPO 4000 SHRA BKN010 BKN025TCU
  • 191400Z AUTO 27005KT 230V290 9999 FEW025 SCT035 BKN056 12/09 Q1029 TEMPO 4000 SHRA BKN010 BKN025TCU
  • 191330Z AUTO 29006KT 9999 FEW011 BKN056 11/09 Q1030 TEMPO 4000 SHRA BKN010 BKN025TCU
  • 191300Z AUTO VRB03KT 9999 FEW009 SCT034 OVC048 10/09 Q1030 TEMPO 4000 SHRA BKN010 BKN025TCU

TAF TAF LFBU
Valide du 19 à 12h jusqu'au 20 à 12h UTC


191100Z 1912/2012 24010KT 9999 BKN020
PROB40
TEMPO 1912/1916 4000 SHRA BKN010 BKN025TCU
BECMG 1920/1922 16005KT
TEMPO 2000/2006 0800 FG VV///



MET'MAP, la Météo Aéronautique d'un coup d'oeil ! - Copyright ORBIFLY Décembre 2007 - Disclaimer

ORBIFLY MET'MAP TEAM :

Programmation & Développement : Alexandra Zaïnal
Sur une idée originale de : Baudouin d'Aumeries
Assistance à la programmation : Marc-Olivier Méhu
Soutien technique & logistique : Manuel Goepfert

Contact : metmap@orbifly.com




SOURCES & CREDITS :

   NOAA